createdAt,value
2017-12-22T00:00:45.359Z,98.42
2017-12-22T00:03:11.395Z,98.04
2017-12-22T00:05:37.401Z,97.88
2017-12-22T00:08:03.503Z,97.88
2017-12-22T00:10:29.571Z,98.01
2017-12-22T00:12:55.602Z,97.65
2017-12-22T00:15:21.947Z,97.32
2017-12-22T00:17:47.977Z,97.08
2017-12-22T00:20:14.006Z,96.99
2017-12-22T00:22:40.067Z,97.48
2017-12-22T00:25:06.198Z,97.76
2017-12-22T00:27:32.478Z,98.26
2017-12-22T00:29:58.501Z,98.35
2017-12-22T00:32:24.545Z,98.63
2017-12-22T00:34:50.684Z,98.78
2017-12-22T00:37:16.701Z,99.03
2017-12-22T00:39:42.787Z,99.13
2017-12-22T00:42:09.090Z,99.25
2017-12-22T00:44:36.629Z,99.15
2017-12-22T00:47:02.684Z,99.25
2017-12-22T00:49:28.718Z,99.03
2017-12-22T00:51:54.782Z,98.50
2017-12-22T00:54:20.816Z,98.13
2017-12-22T00:56:46.888Z,98.05
2017-12-22T00:59:13.022Z,97.98
2017-12-22T01:01:39.628Z,97.96
2017-12-22T01:04:05.788Z,97.80
2017-12-22T01:06:31.754Z,97.87
2017-12-22T01:08:57.789Z,97.90
2017-12-22T01:11:23.814Z,98.20
2017-12-22T01:13:50.178Z,98.39
2017-12-22T01:16:22.145Z,98.72
2017-12-22T01:18:54.509Z,98.70
2017-12-22T01:21:20.704Z,98.36
2017-12-22T01:23:46.771Z,97.88
2017-12-22T01:26:12.846Z,97.67
2017-12-22T01:28:38.881Z,97.47
2017-12-22T01:31:04.926Z,97.62
2017-12-22T01:33:30.975Z,97.77
2017-12-22T01:35:57.381Z,97.74
2017-12-22T01:38:23.446Z,97.84
2017-12-22T01:40:49.491Z,98.09
2017-12-22T01:43:15.550Z,98.38
2017-12-22T01:45:41.569Z,98.38
2017-12-22T01:48:08.025Z,98.27
2017-12-22T01:50:34.053Z,98.47
2017-12-22T01:53:00.081Z,98.58
2017-12-22T01:55:26.490Z,98.48
2017-12-22T01:57:52.601Z,98.68
2017-12-22T02:00:19.094Z,99.08
2017-12-22T02:02:45.154Z,98.98
2017-12-22T02:05:11.273Z,98.92
2017-12-22T02:07:37.406Z,99.31
2017-12-22T02:10:03.413Z,99.24
2017-12-22T02:12:29.430Z,99.52
2017-12-22T02:14:55.469Z,99.59
2017-12-22T02:17:21.869Z,99.83
2017-12-22T02:19:47.903Z,99.75
2017-12-22T02:22:13.957Z,100.00
2017-12-22T02:24:40.008Z,100.00
2017-12-22T02:27:06.030Z,100.00
2017-12-22T02:29:32.086Z,100.00
2017-12-22T02:31:58.138Z,100.00
2017-12-22T02:34:24.555Z,99.98
2017-12-22T02:36:50.630Z,99.94
2017-12-22T02:39:16.671Z,99.98
2017-12-22T02:41:43.569Z,99.88
2017-12-22T02:44:09.712Z,99.81
2017-12-22T02:46:36.133Z,99.98
2017-12-22T02:49:02.192Z,100.00
2017-12-22T02:51:28.224Z,100.00
2017-12-22T02:53:54.246Z,100.00
2017-12-22T02:56:20.294Z,100.00
2017-12-22T02:58:46.658Z,100.00
2017-12-22T03:01:12.705Z,100.00
2017-12-22T03:03:38.742Z,100.00
2017-12-22T03:06:04.770Z,100.00
2017-12-22T03:08:30.813Z,100.00
2017-12-22T03:10:56.862Z,100.00
2017-12-22T03:13:22.801Z,100.00
2017-12-22T03:15:49.465Z,100.00
2017-12-22T03:18:15.548Z,99.97
2017-12-22T03:20:41.586Z,100.00
2017-12-22T03:23:07.633Z,100.00
2017-12-22T03:25:33.695Z,99.96
2017-12-22T03:28:00.094Z,99.67
2017-12-22T03:30:26.155Z,99.55
2017-12-22T03:32:52.183Z,99.50
2017-12-22T03:35:18.181Z,99.48
2017-12-22T03:37:44.224Z,99.34
2017-12-22T03:40:10.252Z,99.21
2017-12-22T03:42:36.287Z,99.06
2017-12-22T03:45:02.765Z,98.88
2017-12-22T03:47:28.810Z,98.92
2017-12-22T03:49:54.813Z,99.14
2017-12-22T03:52:20.860Z,99.24
2017-12-22T03:54:46.858Z,99.69
2017-12-22T03:57:12.914Z,99.82
2017-12-22T03:59:38.943Z,100.00
2017-12-22T04:02:04.982Z,100.00
2017-12-22T04:04:31.037Z,100.00
2017-12-22T04:06:57.154Z,100.00
2017-12-22T04:09:23.186Z,100.00
2017-12-22T04:11:49.376Z,100.00
2017-12-22T04:14:15.389Z,100.00
2017-12-22T04:16:41.469Z,100.00
2017-12-22T04:19:07.487Z,100.00
2017-12-22T04:21:33.477Z,100.00
2017-12-22T04:23:59.524Z,100.00
2017-12-22T04:26:25.543Z,100.00
2017-12-22T04:28:51.590Z,100.00
2017-12-22T04:31:17.648Z,100.00
2017-12-22T04:33:43.689Z,100.00
2017-12-22T04:36:10.157Z,100.00
2017-12-22T04:38:36.178Z,100.00
2017-12-22T04:41:02.149Z,99.91
2017-12-22T04:43:28.270Z,99.79
2017-12-22T04:45:54.296Z,99.54
2017-12-22T04:48:20.754Z,99.23
2017-12-22T04:50:46.770Z,98.75
2017-12-22T04:53:12.825Z,98.44
2017-12-22T04:55:38.933Z,98.14
2017-12-22T04:58:05.049Z,98.07
2017-12-22T05:00:31.771Z,97.88
2017-12-22T05:02:57.797Z,97.73
2017-12-22T05:05:23.798Z,97.67
2017-12-22T05:07:49.850Z,97.70
2017-12-22T05:10:15.886Z,97.77
2017-12-22T05:12:42.118Z,97.88
2017-12-22T05:15:08.166Z,97.82
2017-12-22T05:17:34.184Z,97.83
2017-12-22T05:20:00.214Z,97.69
2017-12-22T05:22:26.691Z,97.65
2017-12-22T05:24:53.066Z,97.69
2017-12-22T05:27:19.102Z,97.76
2017-12-22T05:29:45.162Z,97.89
2017-12-22T05:32:11.219Z,97.96
2017-12-22T05:34:37.237Z,97.96
2017-12-22T05:37:03.733Z,98.02
2017-12-22T05:39:29.857Z,98.15
2017-12-22T05:41:55.838Z,98.42
2017-12-22T05:44:21.888Z,98.82
2017-12-22T05:46:47.979Z,99.04
2017-12-22T05:49:14.369Z,99.22
2017-12-22T05:51:40.389Z,99.19
2017-12-22T05:54:06.415Z,99.25
2017-12-22T05:56:32.434Z,99.11
2017-12-22T05:58:58.455Z,98.83
2017-12-22T06:01:24.909Z,98.43
2017-12-22T06:03:50.978Z,98.22
2017-12-22T06:06:17.014Z,97.84
2017-12-22T06:08:43.046Z,97.50
2017-12-22T06:11:09.084Z,97.43
2017-12-22T06:13:35.548Z,97.30
2017-12-22T06:16:01.658Z,97.24
2017-12-22T06:18:27.626Z,97.41
2017-12-22T06:20:53.717Z,97.38
2017-12-22T06:23:19.729Z,97.38
2017-12-22T06:25:45.754Z,97.38
2017-12-22T06:28:11.800Z,97.43
2017-12-22T06:30:37.849Z,97.48
2017-12-22T06:33:03.905Z,97.45
2017-12-22T06:35:29.974Z,97.44
2017-12-22T06:37:56.343Z,97.36
2017-12-22T06:40:22.388Z,97.38
2017-12-22T06:42:48.412Z,97.80
2017-12-22T06:45:14.746Z,98.21
2017-12-22T06:47:40.771Z,98.46
2017-12-22T06:50:06.818Z,98.31
2017-12-22T06:52:32.902Z,97.68
2017-12-22T06:54:59.300Z,97.20
2017-12-22T06:57:25.317Z,97.05
2017-12-22T06:59:51.360Z,96.98
2017-12-22T07:02:17.451Z,96.93
2017-12-22T07:04:43.437Z,96.81
2017-12-22T07:07:09.461Z,96.71
2017-12-22T07:09:35.516Z,96.75
2017-12-22T07:12:01.874Z,96.86
2017-12-22T07:14:27.869Z,96.92
2017-12-22T07:16:53.908Z,96.90
2017-12-22T07:19:19.904Z,96.97
2017-12-22T07:21:45.909Z,96.97
2017-12-22T07:24:12.314Z,97.09
2017-12-22T07:26:38.374Z,96.91
2017-12-22T07:29:04.390Z,96.73
2017-12-22T07:31:30.434Z,96.78
2017-12-22T07:33:56.485Z,96.85
2017-12-22T07:36:22.847Z,97.20
2017-12-22T07:38:48.940Z,97.45
2017-12-22T07:41:14.973Z,97.11
2017-12-22T07:43:41.060Z,96.75
2017-12-22T07:46:07.068Z,96.39
2017-12-22T07:48:33.461Z,96.35
2017-12-22T07:50:59.474Z,96.36
2017-12-22T07:53:25.576Z,96.57
2017-12-22T07:55:51.619Z,96.82
2017-12-22T07:58:17.678Z,97.00
2017-12-22T08:00:44.125Z,96.85
2017-12-22T08:03:10.153Z,96.72
2017-12-22T08:05:36.195Z,96.64
2017-12-22T08:08:02.217Z,96.76
2017-12-22T08:10:28.195Z,96.80
2017-12-22T08:12:54.578Z,96.83
2017-12-22T08:15:20.638Z,96.80
2017-12-22T08:17:46.662Z,96.80
2017-12-22T08:20:12.714Z,96.83
2017-12-22T08:22:38.749Z,96.93
2017-12-22T08:25:05.205Z,97.04
2017-12-22T08:27:31.234Z,97.07
2017-12-22T08:29:57.273Z,97.10
2017-12-22T08:32:23.312Z,97.12
2017-12-22T08:34:49.350Z,97.26
2017-12-22T08:37:15.428Z,97.26
2017-12-22T08:39:41.454Z,97.29
2017-12-22T08:42:07.875Z,97.28
2017-12-22T08:44:33.915Z,97.22
2017-12-22T08:46:59.925Z,97.27
2017-12-22T08:49:25.978Z,97.12
2017-12-22T08:51:52.000Z,97.07
2017-12-22T08:54:18.376Z,97.11
2017-12-22T08:56:44.406Z,97.19
2017-12-22T08:59:10.434Z,97.28
2017-12-22T09:01:36.473Z,97.31
2017-12-22T09:04:02.478Z,97.39
2017-12-22T09:06:28.531Z,97.51
2017-12-22T09:08:54.537Z,97.37
2017-12-22T09:11:20.909Z,97.30
2017-12-22T09:13:46.951Z,97.22
2017-12-22T09:16:12.978Z,97.23
2017-12-22T09:18:39.073Z,97.31
2017-12-22T09:21:05.109Z,97.19
2017-12-22T09:23:32.140Z,97.25
2017-12-22T09:25:58.179Z,97.37
2017-12-22T09:28:24.657Z,97.37
2017-12-22T09:30:50.722Z,97.44
2017-12-22T09:33:16.706Z,97.50
2017-12-22T09:35:42.806Z,97.44
2017-12-22T09:38:08.833Z,97.50
2017-12-22T09:40:34.998Z,97.74
2017-12-22T09:43:01.008Z,97.47
2017-12-22T09:45:27.322Z,97.19
2017-12-22T09:47:53.433Z,97.15
2017-12-22T09:50:19.446Z,97.19
2017-12-22T09:52:45.477Z,97.01
2017-12-22T09:55:11.503Z,97.07
2017-12-22T09:57:37.566Z,97.03
2017-12-22T10:00:03.628Z,97.03
2017-12-22T10:02:30.109Z,96.93
2017-12-22T10:04:56.145Z,96.95
2017-12-22T10:07:22.174Z,96.89
2017-12-22T10:09:48.230Z,97.08
2017-12-22T10:12:14.273Z,97.02
2017-12-22T10:14:40.294Z,97.12
2017-12-22T10:17:06.346Z,97.16
2017-12-22T10:19:32.378Z,97.34
2017-12-22T10:21:58.428Z,97.32
2017-12-22T10:24:24.532Z,96.92
2017-12-22T10:26:50.568Z,97.15
2017-12-22T10:29:16.618Z,97.66
2017-12-22T10:31:42.626Z,97.96
2017-12-22T10:34:08.978Z,98.25
2017-12-22T10:36:35.010Z,98.41
2017-12-22T10:39:01.083Z,98.27
2017-12-22T10:41:27.137Z,97.72
2017-12-22T10:43:53.269Z,97.53
2017-12-22T10:46:19.691Z,98.01
2017-12-22T10:48:45.678Z,97.91
2017-12-22T10:51:11.758Z,98.03
2017-12-22T10:53:38.163Z,98.12
2017-12-22T10:56:04.154Z,98.41
2017-12-22T10:58:30.209Z,98.33
2017-12-22T11:00:56.543Z,98.38
2017-12-22T11:03:22.580Z,98.43
2017-12-22T11:05:48.639Z,98.75
2017-12-22T11:08:14.714Z,98.94
2017-12-22T11:10:40.761Z,98.85
2017-12-22T11:13:06.831Z,98.36
2017-12-22T11:15:32.851Z,98.24
2017-12-22T11:17:59.234Z,98.07
2017-12-22T11:20:25.309Z,98.20
2017-12-22T11:22:51.338Z,97.96
2017-12-22T11:25:17.421Z,98.11
2017-12-22T11:27:43.466Z,98.12
2017-12-22T11:30:09.522Z,97.96
2017-12-22T11:32:35.529Z,97.98
2017-12-22T11:35:02.168Z,97.76
2017-12-22T11:37:28.177Z,98.08
2017-12-22T11:39:54.182Z,98.11
2017-12-22T11:42:20.250Z,98.17
2017-12-22T11:44:46.275Z,97.71
2017-12-22T11:47:12.309Z,97.63
2017-12-22T11:49:38.339Z,97.28
2017-12-22T11:52:04.738Z,97.18
2017-12-22T11:54:30.753Z,97.07
2017-12-22T11:56:56.799Z,97.35
2017-12-22T11:59:22.895Z,97.61
2017-12-22T12:01:48.995Z,97.31
2017-12-22T12:04:15.037Z,97.50
2017-12-22T12:06:41.086Z,97.29
2017-12-22T12:09:07.509Z,97.57
2017-12-22T12:11:33.570Z,97.47
2017-12-22T12:13:59.598Z,96.86
2017-12-22T12:16:25.629Z,96.64
2017-12-22T12:18:51.689Z,96.87
2017-12-22T12:21:17.682Z,96.83
2017-12-22T12:23:43.742Z,96.90
2017-12-22T12:26:10.181Z,97.21
2017-12-22T12:28:36.217Z,97.50
2017-12-22T12:31:02.250Z,98.15
2017-12-22T12:33:28.306Z,97.74
2017-12-22T12:35:54.382Z,97.12
2017-12-22T12:38:20.426Z,96.74
2017-12-22T12:40:46.479Z,96.91
2017-12-22T12:43:12.896Z,97.53
2017-12-22T12:45:38.884Z,96.77
2017-12-22T12:48:04.960Z,96.56
2017-12-22T12:50:31.028Z,96.90
2017-12-22T12:52:56.994Z,97.25
2017-12-22T12:55:23.029Z,97.54
2017-12-22T12:57:49.061Z,97.72
2017-12-22T13:00:15.469Z,97.31
2017-12-22T13:02:41.514Z,96.46
2017-12-22T13:05:07.588Z,96.44
2017-12-22T13:07:33.671Z,96.54
2017-12-22T13:09:59.650Z,96.48
2017-12-22T13:12:25.716Z,96.89
2017-12-22T13:14:51.814Z,97.26
2017-12-22T13:17:18.277Z,97.38
2017-12-22T13:19:44.257Z,97.35
2017-12-22T13:22:10.283Z,97.36
2017-12-22T13:24:36.337Z,97.51
2017-12-22T13:27:02.388Z,97.37
2017-12-22T13:29:28.463Z,97.42
2017-12-22T13:31:54.544Z,97.71
2017-12-22T13:34:20.905Z,97.35
2017-12-22T13:36:46.953Z,96.71
2017-12-22T13:39:12.966Z,96.40
2017-12-22T13:41:39.010Z,96.43
2017-12-22T13:44:05.048Z,96.57
2017-12-22T13:46:31.136Z,96.26
2017-12-22T13:48:57.201Z,95.59
2017-12-22T13:51:23.629Z,95.27
2017-12-22T13:53:49.704Z,95.54
2017-12-22T13:56:15.733Z,95.83
2017-12-22T13:58:41.778Z,96.31
2017-12-22T14:01:07.846Z,97.06
2017-12-22T14:03:33.938Z,96.41
2017-12-22T14:05:59.996Z,96.21
2017-12-22T14:08:26.417Z,95.99
2017-12-22T14:10:52.414Z,95.96
2017-12-22T14:13:18.448Z,96.06
2017-12-22T14:15:44.499Z,96.04
2017-12-22T14:18:10.539Z,95.89
2017-12-22T14:20:36.608Z,95.79
2017-12-22T14:23:02.652Z,96.15
2017-12-22T14:25:29.001Z,96.17
2017-12-22T14:27:55.101Z,96.27
2017-12-22T14:30:21.124Z,96.21
2017-12-22T14:32:47.177Z,96.18
2017-12-22T14:35:13.273Z,96.05
2017-12-22T14:37:39.413Z,95.23
2017-12-22T14:40:05.470Z,95.29
2017-12-22T14:42:31.897Z,95.30
2017-12-22T14:44:57.925Z,95.23
2017-12-22T14:47:23.947Z,95.32
2017-12-22T14:49:50.018Z,95.03
2017-12-22T14:52:16.152Z,95.33
2017-12-22T14:54:42.516Z,95.39
2017-12-22T14:57:08.577Z,95.70
2017-12-22T14:59:34.647Z,96.04
2017-12-22T15:02:00.689Z,96.22
2017-12-22T15:04:26.783Z,96.52
2017-12-22T15:06:53.188Z,96.63
2017-12-22T15:09:19.229Z,96.36
2017-12-22T15:11:45.250Z,96.53
2017-12-22T15:14:11.258Z,96.67
2017-12-22T15:16:37.294Z,96.63
2017-12-22T15:19:03.674Z,96.73
2017-12-22T15:21:29.732Z,96.96
2017-12-22T15:23:55.764Z,96.92
2017-12-22T15:26:21.989Z,97.04
2017-12-22T15:28:48.021Z,97.03
2017-12-22T15:31:14.337Z,97.19
2017-12-22T15:33:40.462Z,97.31
2017-12-22T15:36:06.512Z,97.38
2017-12-22T15:38:32.690Z,97.26
2017-12-22T15:40:58.801Z,97.20
2017-12-22T15:43:25.210Z,97.15
2017-12-22T15:45:51.257Z,97.05
2017-12-22T15:48:17.318Z,96.98
2017-12-22T15:50:43.393Z,96.98
2017-12-22T15:53:09.451Z,96.31
2017-12-22T15:55:35.845Z,95.94
2017-12-22T15:58:01.860Z,95.14
2017-12-22T16:00:27.922Z,94.17
2017-12-22T16:02:54.018Z,93.82
2017-12-22T16:05:20.143Z,94.11
2017-12-22T16:07:46.596Z,94.32
2017-12-22T16:10:12.568Z,94.74
2017-12-22T16:12:38.637Z,94.92
2017-12-22T16:15:04.691Z,94.71
2017-12-22T16:17:30.744Z,95.06
2017-12-22T16:19:57.226Z,95.25
2017-12-22T16:22:23.291Z,95.29
2017-12-22T16:24:49.335Z,95.76
2017-12-22T16:27:15.412Z,95.83
2017-12-22T16:29:41.456Z,96.08
2017-12-22T16:32:07.869Z,96.70
2017-12-22T16:34:33.913Z,97.24
2017-12-22T16:36:59.962Z,97.49
2017-12-22T16:39:26.091Z,98.19
2017-12-22T16:41:52.143Z,98.35
2017-12-22T16:44:18.605Z,98.28
2017-12-22T16:46:44.824Z,98.11
2017-12-22T16:49:10.895Z,97.59
2017-12-22T16:51:37.049Z,97.02
2017-12-22T16:54:03.092Z,97.12
2017-12-22T16:56:29.531Z,96.95
2017-12-22T16:58:57.216Z,97.29
2017-12-22T17:01:23.272Z,97.36
2017-12-22T17:03:49.376Z,97.49
2017-12-22T17:06:15.423Z,97.37
2017-12-22T17:08:41.507Z,97.04
2017-12-22T17:11:07.592Z,97.35
2017-12-22T17:13:33.986Z,97.15
2017-12-22T17:16:00.951Z,97.09
2017-12-22T17:18:27.036Z,97.14
2017-12-22T17:20:53.101Z,97.21
2017-12-22T17:23:19.149Z,97.22
2017-12-22T17:25:45.195Z,97.05
2017-12-22T17:28:11.244Z,97.11
2017-12-22T17:30:37.796Z,97.29
2017-12-22T17:33:03.903Z,96.94
2017-12-22T17:35:30.082Z,96.90
2017-12-22T17:37:56.237Z,96.98
2017-12-22T17:40:22.283Z,96.82
2017-12-22T17:42:48.380Z,96.65
2017-12-22T17:45:14.561Z,96.31
2017-12-22T17:47:41.206Z,96.10
2017-12-22T17:50:07.244Z,96.28
2017-12-22T17:52:33.355Z,96.40
2017-12-22T17:54:59.420Z,96.12
2017-12-22T17:57:25.542Z,95.75
2017-12-22T17:59:51.639Z,95.83
2017-12-22T18:02:17.726Z,95.45
2017-12-22T18:04:43.784Z,95.96
2017-12-22T18:07:09.853Z,95.05
2017-12-22T18:09:35.805Z,94.84
2017-12-22T18:12:02.376Z,94.95
2017-12-22T18:14:28.425Z,94.88
2017-12-22T18:16:54.515Z,94.58
2017-12-22T18:19:20.545Z,94.61
2017-12-22T18:21:46.645Z,95.20
2017-12-22T18:24:12.711Z,95.64
2017-12-22T18:26:38.788Z,95.87
2017-12-22T18:29:04.849Z,96.05
2017-12-22T18:31:31.114Z,95.52
2017-12-22T18:33:57.201Z,95.50
2017-12-22T18:36:23.264Z,96.27
2017-12-22T18:38:49.327Z,96.44
2017-12-22T18:41:15.483Z,96.49
2017-12-22T18:43:41.545Z,96.92
2017-12-22T18:46:07.577Z,96.92
2017-12-22T18:48:33.601Z,97.11
2017-12-22T18:50:59.766Z,97.10
2017-12-22T18:53:25.822Z,97.38
2017-12-22T18:55:51.881Z,97.32
2017-12-22T18:58:17.995Z,97.25
2017-12-22T19:00:44.080Z,97.36
2017-12-22T19:03:22.417Z,96.57
2017-12-22T19:05:48.465Z,96.46
2017-12-22T19:08:14.539Z,96.64
2017-12-22T19:10:40.609Z,96.83
2017-12-22T19:13:06.674Z,96.96
2017-12-22T19:15:32.714Z,96.68
2017-12-22T19:17:58.777Z,96.52
2017-12-22T19:20:24.791Z,96.31
2017-12-22T19:22:50.877Z,95.86
2017-12-22T19:25:16.975Z,96.82
2017-12-22T19:27:42.996Z,97.80
2017-12-22T19:30:08.994Z,98.16
2017-12-22T19:32:35.215Z,98.27
2017-12-22T19:35:01.327Z,98.37
2017-12-22T19:37:27.418Z,98.24
2017-12-22T19:39:53.486Z,97.94
2017-12-22T19:42:19.609Z,97.72
2017-12-22T19:44:45.631Z,98.21
2017-12-22T19:47:11.652Z,98.31
2017-12-22T19:49:38.357Z,98.40
2017-12-22T19:52:04.519Z,98.39
2017-12-22T19:54:30.560Z,98.41
2017-12-22T19:56:56.597Z,98.61
2017-12-22T19:59:23.034Z,98.37
2017-12-22T20:01:49.108Z,98.15
2017-12-22T20:04:15.200Z,98.10
2017-12-22T20:06:41.294Z,98.03
2017-12-22T20:09:07.310Z,97.88
2017-12-22T20:11:33.422Z,97.81
2017-12-22T20:13:59.419Z,97.76
2017-12-22T20:16:25.547Z,97.85
2017-12-22T20:18:51.611Z,97.42
2017-12-22T20:21:17.761Z,97.36
2017-12-22T20:23:44.436Z,97.36
2017-12-22T20:26:10.548Z,97.50
2017-12-22T20:28:37.584Z,96.97
2017-12-22T20:31:03.652Z,96.52
2017-12-22T20:33:29.815Z,96.41
2017-12-22T20:35:55.978Z,96.75
2017-12-22T20:38:22.069Z,97.06
2017-12-22T20:40:48.122Z,97.35
2017-12-22T20:43:14.184Z,97.35
2017-12-22T20:45:40.696Z,97.32
2017-12-22T20:48:13.598Z,97.38
2017-12-22T20:50:40.210Z,97.51
2017-12-22T20:53:06.242Z,97.41
2017-12-22T20:55:32.507Z,96.98
2017-12-22T20:57:58.549Z,97.05
2017-12-22T21:00:24.615Z,96.81
2017-12-22T21:02:50.752Z,97.07
2017-12-22T21:05:17.808Z,96.84
2017-12-22T21:07:43.936Z,96.90
2017-12-22T21:10:09.978Z,96.85
2017-12-22T21:12:35.993Z,96.20
2017-12-22T21:15:02.373Z,96.55
2017-12-22T21:17:28.567Z,96.25
2017-12-22T21:19:54.617Z,96.35
2017-12-22T21:22:20.797Z,96.55
2017-12-22T21:24:47.149Z,96.65
2017-12-22T21:27:13.234Z,96.08
2017-12-22T21:29:39.283Z,96.21
2017-12-22T21:32:05.327Z,96.14
2017-12-22T21:34:31.394Z,96.48
2017-12-22T21:36:57.450Z,96.71
2017-12-22T21:39:23.505Z,96.70
2017-12-22T21:41:49.635Z,95.79
2017-12-22T21:44:15.695Z,95.72
2017-12-22T21:46:41.767Z,95.96
2017-12-22T21:49:07.905Z,96.11
2017-12-22T21:51:33.946Z,96.29
2017-12-22T21:54:00.055Z,95.73
2017-12-22T21:56:27.061Z,95.51
2017-12-22T21:58:53.400Z,95.51
2017-12-22T22:01:19.443Z,95.74
2017-12-22T22:03:45.480Z,95.75
2017-12-22T22:06:11.507Z,96.07
2017-12-22T22:08:37.519Z,95.74
2017-12-22T22:11:03.553Z,95.45
2017-12-22T22:13:29.622Z,95.56
2017-12-22T22:15:55.984Z,95.39
2017-12-22T22:18:22.043Z,95.39
2017-12-22T22:20:48.096Z,95.73
2017-12-22T22:23:14.157Z,95.53
2017-12-22T22:25:40.294Z,95.31
2017-12-22T22:28:06.413Z,94.69
2017-12-22T22:30:32.758Z,95.09
2017-12-22T22:32:58.846Z,94.47
2017-12-22T22:35:25.089Z,95.01
2017-12-22T22:37:51.154Z,95.21
2017-12-22T22:40:17.286Z,94.75
2017-12-22T22:42:43.353Z,95.04
2017-12-22T22:45:09.444Z,95.21
2017-12-22T22:47:35.446Z,95.23
2017-12-22T22:50:01.484Z,95.54
2017-12-22T22:52:27.470Z,95.28
2017-12-22T22:54:53.503Z,95.96
2017-12-22T22:57:19.503Z,96.06
2017-12-22T22:59:45.542Z,96.17
2017-12-22T23:02:11.550Z,96.09
2017-12-22T23:04:37.601Z,96.42
2017-12-22T23:07:03.634Z,96.54
2017-12-22T23:09:29.698Z,96.47
2017-12-22T23:11:55.706Z,96.15
2017-12-22T23:14:21.735Z,96.34
2017-12-22T23:16:47.757Z,96.48
2017-12-22T23:19:13.896Z,96.06
2017-12-22T23:21:39.978Z,96.14
2017-12-22T23:24:06.005Z,95.63
2017-12-22T23:26:32.021Z,95.66
2017-12-22T23:28:58.052Z,95.78
2017-12-22T23:31:24.019Z,95.41
2017-12-22T23:33:50.086Z,95.43
2017-12-22T23:36:16.204Z,95.58
2017-12-22T23:38:42.217Z,95.61
2017-12-22T23:41:08.218Z,95.76
2017-12-22T23:43:34.233Z,95.67
2017-12-22T23:46:00.249Z,95.25
2017-12-22T23:48:26.328Z,95.33
2017-12-22T23:50:52.376Z,95.44
2017-12-22T23:53:18.422Z,95.61
2017-12-22T23:55:44.477Z,95.90
2017-12-22T23:58:10.626Z,95.99
